sensor_id;sensor_type;location;lat;lon;timestamp;temperature;humidity
20658;DHT22;10488;50.846;4.078;2022-12-29T00:02:17;11.60;99.90
20658;DHT22;10488;50.846;4.078;2022-12-29T00:04:42;11.60;99.90
20658;DHT22;10488;50.846;4.078;2022-12-29T00:07:08;11.60;99.90
20658;DHT22;10488;50.846;4.078;2022-12-29T00:09:35;11.60;99.90
20658;DHT22;10488;50.846;4.078;2022-12-29T00:12:01;11.70;99.90
20658;DHT22;10488;50.846;4.078;2022-12-29T00:14:27;11.60;99.90
20658;DHT22;10488;50.846;4.078;2022-12-29T00:17:12;11.60;99.90
20658;DHT22;10488;50.846;4.078;2022-12-29T00:19:38;11.60;99.90
20658;DHT22;10488;50.846;4.078;2022-12-29T00:22:22;11.60;99.90
20658;DHT22;10488;50.846;4.078;2022-12-29T00:25:09;11.70;99.90
20658;DHT22;10488;50.846;4.078;2022-12-29T00:27:54;11.70;99.90
20658;DHT22;10488;50.846;4.078;2022-12-29T00:30:38;11.70;99.90
20658;DHT22;10488;50.846;4.078;2022-12-29T00:33:26;11.70;99.90
20658;DHT22;10488;50.846;4.078;2022-12-29T00:39:06;11.70;99.90
20658;DHT22;10488;50.846;4.078;2022-12-29T00:41:51;11.80;99.90
20658;DHT22;10488;50.846;4.078;2022-12-29T00:44:48;11.80;99.90
20658;DHT22;10488;50.846;4.078;2022-12-29T00:47:14;11.80;99.90
20658;DHT22;10488;50.846;4.078;2022-12-29T00:49:40;11.80;99.90
20658;DHT22;10488;50.846;4.078;2022-12-29T00:52:08;11.90;99.90
20658;DHT22;10488;50.846;4.078;2022-12-29T00:54:35;11.90;99.90
20658;DHT22;10488;50.846;4.078;2022-12-29T00:57:03;11.80;99.90
20658;DHT22;10488;50.846;4.078;2022-12-29T00:59:29;11.70;99.90
20658;DHT22;10488;50.846;4.078;2022-12-29T01:01:55;11.70;99.90
20658;DHT22;10488;50.846;4.078;2022-12-29T01:04:21;11.70;99.90
20658;DHT22;10488;50.846;4.078;2022-12-29T01:06:48;11.60;99.90
20658;DHT22;10488;50.846;4.078;2022-12-29T01:09:14;11.60;99.90
20658;DHT22;10488;50.846;4.078;2022-12-29T01:11:58;11.70;99.90
20658;DHT22;10488;50.846;4.078;2022-12-29T01:14:24;11.60;99.90
20658;DHT22;10488;50.846;4.078;2022-12-29T01:16:51;11.50;99.90
20658;DHT22;10488;50.846;4.078;2022-12-29T01:19:17;11.50;99.90
20658;DHT22;10488;50.846;4.078;2022-12-29T01:21:43;11.40;99.90
20658;DHT22;10488;50.846;4.078;2022-12-29T01:24:09;11.50;99.90
20658;DHT22;10488;50.846;4.078;2022-12-29T01:26:35;11.50;99.90
20658;DHT22;10488;50.846;4.078;2022-12-29T01:29:00;11.40;99.90
20658;DHT22;10488;50.846;4.078;2022-12-29T01:31:27;11.40;99.90
20658;DHT22;10488;50.846;4.078;2022-12-29T01:33:52;11.30;99.90
20658;DHT22;10488;50.846;4.078;2022-12-29T01:36:19;11.30;99.90
20658;DHT22;10488;50.846;4.078;2022-12-29T01:38:45;11.30;99.90
20658;DHT22;10488;50.846;4.078;2022-12-29T01:41:12;11.20;99.90
20658;DHT22;10488;50.846;4.078;2022-12-29T01:43:40;11.30;99.90
20658;DHT22;10488;50.846;4.078;2022-12-29T01:46:27;11.30;99.90
20658;DHT22;10488;50.846;4.078;2022-12-29T01:49:18;11.30;99.90
20658;DHT22;10488;50.846;4.078;2022-12-29T01:51:56;11.10;99.90
20658;DHT22;10488;50.846;4.078;2022-12-29T01:56:51;11.10;99.90
20658;DHT22;10488;50.846;4.078;2022-12-29T01:59:22;11.10;99.90
20658;DHT22;10488;50.846;4.078;2022-12-29T02:01:48;11.10;99.90
20658;DHT22;10488;50.846;4.078;2022-12-29T02:04:14;11.10;99.90
20658;DHT22;10488;50.846;4.078;2022-12-29T02:06:55;11.00;99.90
20658;DHT22;10488;50.846;4.078;2022-12-29T02:09:22;11.10;99.90
20658;DHT22;10488;50.846;4.078;2022-12-29T02:11:49;10.90;99.90
20658;DHT22;10488;50.846;4.078;2022-12-29T02:14:15;10.90;99.90
20658;DHT22;10488;50.846;4.078;2022-12-29T02:33:23;10.50;99.90
20658;DHT22;10488;50.846;4.078;2022-12-29T02:36:57;10.60;99.90
20658;DHT22;10488;50.846;4.078;2022-12-29T02:44:31;10.80;99.90
20658;DHT22;10488;50.846;4.078;2022-12-29T02:47:16;10.80;99.90
20658;DHT22;10488;50.846;4.078;2022-12-29T02:52:27;11.10;99.90
20658;DHT22;10488;50.846;4.078;2022-12-29T02:54:54;10.90;99.90
20658;DHT22;10488;50.846;4.078;2022-12-29T02:59:47;10.70;99.90
20658;DHT22;10488;50.846;4.078;2022-12-29T03:05:14;10.60;99.90
20658;DHT22;10488;50.846;4.078;2022-12-29T03:08:13;10.60;99.90
20658;DHT22;10488;50.846;4.078;2022-12-29T03:13:36;10.50;99.90
20658;DHT22;10488;50.846;4.078;2022-12-29T03:21:47;10.30;99.90
20658;DHT22;10488;50.846;4.078;2022-12-29T03:24:36;10.40;99.90
20658;DHT22;10488;50.846;4.078;2022-12-29T03:27:05;10.40;99.90
20658;DHT22;10488;50.846;4.078;2022-12-29T03:29:35;10.40;99.90
20658;DHT22;10488;50.846;4.078;2022-12-29T03:32:03;10.30;99.90
20658;DHT22;10488;50.846;4.078;2022-12-29T03:34:30;10.40;99.90
20658;DHT22;10488;50.846;4.078;2022-12-29T03:37:10;10.50;99.90
20658;DHT22;10488;50.846;4.078;2022-12-29T03:39:37;10.50;99.90
20658;DHT22;10488;50.846;4.078;2022-12-29T03:42:05;10.40;99.90
20658;DHT22;10488;50.846;4.078;2022-12-29T03:44:34;10.30;99.90
20658;DHT22;10488;50.846;4.078;2022-12-29T03:47:02;10.40;99.90
20658;DHT22;10488;50.846;4.078;2022-12-29T03:49:27;10.30;99.90
20658;DHT22;10488;50.846;4.078;2022-12-29T03:51:53;10.30;99.90
20658;DHT22;10488;50.846;4.078;2022-12-29T03:54:19;10.30;99.90
20658;DHT22;10488;50.846;4.078;2022-12-29T03:56:44;10.30;99.90
20658;DHT22;10488;50.846;4.078;2022-12-29T03:59:10;10.30;99.90
20658;DHT22;10488;50.846;4.078;2022-12-29T04:01:36;10.20;99.90
20658;DHT22;10488;50.846;4.078;2022-12-29T04:04:01;10.20;99.90
20658;DHT22;10488;50.846;4.078;2022-12-29T04:06:27;10.20;99.90
20658;DHT22;10488;50.846;4.078;2022-12-29T04:08:52;10.20;99.90
20658;DHT22;10488;50.846;4.078;2022-12-29T04:11:18;10.20;99.90
20658;DHT22;10488;50.846;4.078;2022-12-29T04:13:44;10.20;99.90
20658;DHT22;10488;50.846;4.078;2022-12-29T04:16:09;10.20;99.90
20658;DHT22;10488;50.846;4.078;2022-12-29T04:18:35;10.10;99.90
20658;DHT22;10488;50.846;4.078;2022-12-29T04:21:01;10.00;99.90
20658;DHT22;10488;50.846;4.078;2022-12-29T04:23:29;10.10;99.90
20658;DHT22;10488;50.846;4.078;2022-12-29T04:25:55;10.20;99.90
20658;DHT22;10488;50.846;4.078;2022-12-29T04:28:22;10.10;99.90
20658;DHT22;10488;50.846;4.078;2022-12-29T04:30:49;10.20;99.90
20658;DHT22;10488;50.846;4.078;2022-12-29T04:33:14;10.30;99.90
20658;DHT22;10488;50.846;4.078;2022-12-29T04:35:41;10.30;99.90
20658;DHT22;10488;50.846;4.078;2022-12-29T04:38:06;10.30;99.90
20658;DHT22;10488;50.846;4.078;2022-12-29T04:40:32;10.30;99.90
20658;DHT22;10488;50.846;4.078;2022-12-29T04:42:58;10.10;99.90
20658;DHT22;10488;50.846;4.078;2022-12-29T04:45:23;10.10;99.90
20658;DHT22;10488;50.846;4.078;2022-12-29T04:47:49;10.10;99.90
20658;DHT22;10488;50.846;4.078;2022-12-29T04:50:15;10.10;99.90
20658;DHT22;10488;50.846;4.078;2022-12-29T04:52:40;10.10;99.90
20658;DHT22;10488;50.846;4.078;2022-12-29T04:55:06;10.20;99.90
20658;DHT22;10488;50.846;4.078;2022-12-29T04:57:32;10.20;99.90
20658;DHT22;10488;50.846;4.078;2022-12-29T04:59:58;10.20;99.90
20658;DHT22;10488;50.846;4.078;2022-12-29T05:02:23;10.20;99.90
20658;DHT22;10488;50.846;4.078;2022-12-29T05:04:49;10.20;99.90
20658;DHT22;10488;50.846;4.078;2022-12-29T05:07:15;10.20;99.90
20658;DHT22;10488;50.846;4.078;2022-12-29T05:09:41;10.20;99.90
20658;DHT22;10488;50.846;4.078;2022-12-29T05:12:07;10.40;99.90
20658;DHT22;10488;50.846;4.078;2022-12-29T05:14:32;10.50;99.90
20658;DHT22;10488;50.846;4.078;2022-12-29T05:16:58;10.50;99.90
20658;DHT22;10488;50.846;4.078;2022-12-29T05:19:24;10.50;99.90
20658;DHT22;10488;50.846;4.078;2022-12-29T05:21:49;10.60;99.90
20658;DHT22;10488;50.846;4.078;2022-12-29T05:24:15;10.60;99.90
20658;DHT22;10488;50.846;4.078;2022-12-29T05:26:41;10.60;99.90
20658;DHT22;10488;50.846;4.078;2022-12-29T05:29:07;10.70;99.90
20658;DHT22;10488;50.846;4.078;2022-12-29T05:31:33;10.70;99.90
20658;DHT22;10488;50.846;4.078;2022-12-29T05:34:01;10.60;99.90
20658;DHT22;10488;50.846;4.078;2022-12-29T05:36:27;10.50;99.90
20658;DHT22;10488;50.846;4.078;2022-12-29T05:38:53;10.50;99.90
20658;DHT22;10488;50.846;4.078;2022-12-29T05:41:18;10.50;99.90
20658;DHT22;10488;50.846;4.078;2022-12-29T05:43:44;10.40;99.90
20658;DHT22;10488;50.846;4.078;2022-12-29T05:46:10;10.40;99.90
20658;DHT22;10488;50.846;4.078;2022-12-29T05:48:35;10.40;99.90
20658;DHT22;10488;50.846;4.078;2022-12-29T05:51:01;10.40;99.90
20658;DHT22;10488;50.846;4.078;2022-12-29T05:53:27;10.30;99.90
20658;DHT22;10488;50.846;4.078;2022-12-29T05:55:52;10.30;99.90
20658;DHT22;10488;50.846;4.078;2022-12-29T05:58:18;10.30;99.90
20658;DHT22;10488;50.846;4.078;2022-12-29T06:00:44;10.30;99.90
20658;DHT22;10488;50.846;4.078;2022-12-29T06:03:10;10.20;99.90
20658;DHT22;10488;50.846;4.078;2022-12-29T06:05:36;10.20;99.90
20658;DHT22;10488;50.846;4.078;2022-12-29T06:08:02;10.10;99.90
20658;DHT22;10488;50.846;4.078;2022-12-29T06:10:28;10.10;99.90
20658;DHT22;10488;50.846;4.078;2022-12-29T06:12:53;10.10;99.90
20658;DHT22;10488;50.846;4.078;2022-12-29T06:15:19;10.10;99.90
20658;DHT22;10488;50.846;4.078;2022-12-29T06:17:45;10.10;99.90
20658;DHT22;10488;50.846;4.078;2022-12-29T06:20:11;10.10;99.90
20658;DHT22;10488;50.846;4.078;2022-12-29T06:22:37;10.20;99.90
20658;DHT22;10488;50.846;4.078;2022-12-29T06:25:03;10.10;99.90
20658;DHT22;10488;50.846;4.078;2022-12-29T06:27:28;10.10;99.90
20658;DHT22;10488;50.846;4.078;2022-12-29T06:29:54;10.30;99.90
20658;DHT22;10488;50.846;4.078;2022-12-29T06:32:20;10.40;99.90
20658;DHT22;10488;50.846;4.078;2022-12-29T06:34:46;10.40;99.90
20658;DHT22;10488;50.846;4.078;2022-12-29T06:37:12;10.50;99.90
20658;DHT22;10488;50.846;4.078;2022-12-29T06:39:38;10.50;99.90
20658;DHT22;10488;50.846;4.078;2022-12-29T06:42:04;10.70;99.90
20658;DHT22;10488;50.846;4.078;2022-12-29T06:44:29;10.60;99.90
20658;DHT22;10488;50.846;4.078;2022-12-29T06:46:55;10.60;99.90
20658;DHT22;10488;50.846;4.078;2022-12-29T06:49:21;10.60;99.90
20658;DHT22;10488;50.846;4.078;2022-12-29T06:51:47;10.60;99.90
20658;DHT22;10488;50.846;4.078;2022-12-29T06:54:12;10.60;99.90
20658;DHT22;10488;50.846;4.078;2022-12-29T06:56:38;10.60;99.90
20658;DHT22;10488;50.846;4.078;2022-12-29T06:59:04;10.60;99.90
20658;DHT22;10488;50.846;4.078;2022-12-29T07:01:38;10.60;99.90
20658;DHT22;10488;50.846;4.078;2022-12-29T07:04:04;10.40;99.90
20658;DHT22;10488;50.846;4.078;2022-12-29T07:06:30;10.50;99.90
20658;DHT22;10488;50.846;4.078;2022-12-29T07:08:55;10.60;99.90
20658;DHT22;10488;50.846;4.078;2022-12-29T07:11:23;10.50;99.90
20658;DHT22;10488;50.846;4.078;2022-12-29T07:13:49;10.60;99.90
20658;DHT22;10488;50.846;4.078;2022-12-29T07:16:14;10.60;99.90
20658;DHT22;10488;50.846;4.078;2022-12-29T07:18:40;10.50;99.90
20658;DHT22;10488;50.846;4.078;2022-12-29T07:21:05;10.60;99.90
20658;DHT22;10488;50.846;4.078;2022-12-29T07:23:31;10.60;99.90
20658;DHT22;10488;50.846;4.078;2022-12-29T07:26:04;10.50;99.90
20658;DHT22;10488;50.846;4.078;2022-12-29T07:28:31;10.60;99.90
20658;DHT22;10488;50.846;4.078;2022-12-29T07:30:57;10.60;99.90
20658;DHT22;10488;50.846;4.078;2022-12-29T07:33:23;10.50;99.90
20658;DHT22;10488;50.846;4.078;2022-12-29T07:35:49;10.60;99.90
20658;DHT22;10488;50.846;4.078;2022-12-29T07:38:14;10.60;99.90
20658;DHT22;10488;50.846;4.078;2022-12-29T07:40:42;10.50;99.90
20658;DHT22;10488;50.846;4.078;2022-12-29T07:43:07;10.60;99.90
20658;DHT22;10488;50.846;4.078;2022-12-29T07:45:33;10.50;99.90
20658;DHT22;10488;50.846;4.078;2022-12-29T07:47:58;10.50;99.90
20658;DHT22;10488;50.846;4.078;2022-12-29T07:50:24;10.50;99.90
20658;DHT22;10488;50.846;4.078;2022-12-29T07:52:49;10.50;99.90
20658;DHT22;10488;50.846;4.078;2022-12-29T07:55:16;10.60;99.90
20658;DHT22;10488;50.846;4.078;2022-12-29T07:57:42;10.60;99.90
20658;DHT22;10488;50.846;4.078;2022-12-29T08:00:09;10.60;99.90
20658;DHT22;10488;50.846;4.078;2022-12-29T08:02:35;10.60;99.90
20658;DHT22;10488;50.846;4.078;2022-12-29T08:05:01;10.60;99.90
20658;DHT22;10488;50.846;4.078;2022-12-29T08:07:28;10.60;99.90
20658;DHT22;10488;50.846;4.078;2022-12-29T08:09:53;10.60;99.90
20658;DHT22;10488;50.846;4.078;2022-12-29T08:12:19;10.60;99.90
20658;DHT22;10488;50.846;4.078;2022-12-29T08:14:45;10.70;99.90
20658;DHT22;10488;50.846;4.078;2022-12-29T08:17:10;10.60;99.90
20658;DHT22;10488;50.846;4.078;2022-12-29T08:19:37;10.60;99.90
20658;DHT22;10488;50.846;4.078;2022-12-29T08:22:02;10.50;99.90
20658;DHT22;10488;50.846;4.078;2022-12-29T08:24:29;10.50;99.90
20658;DHT22;10488;50.846;4.078;2022-12-29T08:26:55;10.50;99.90
20658;DHT22;10488;50.846;4.078;2022-12-29T08:29:20;10.60;99.90
20658;DHT22;10488;50.846;4.078;2022-12-29T08:31:47;10.50;99.90
20658;DHT22;10488;50.846;4.078;2022-12-29T08:34:13;10.60;99.90
20658;DHT22;10488;50.846;4.078;2022-12-29T08:36:38;10.50;99.90
20658;DHT22;10488;50.846;4.078;2022-12-29T08:39:04;10.60;99.90
20658;DHT22;10488;50.846;4.078;2022-12-29T08:41:30;10.60;99.90
20658;DHT22;10488;50.846;4.078;2022-12-29T08:43:56;10.60;99.90
20658;DHT22;10488;50.846;4.078;2022-12-29T08:46:22;10.60;99.90
20658;DHT22;10488;50.846;4.078;2022-12-29T08:48:47;10.60;99.90
20658;DHT22;10488;50.846;4.078;2022-12-29T08:51:13;10.60;99.90
20658;DHT22;10488;50.846;4.078;2022-12-29T08:53:39;10.60;99.90
20658;DHT22;10488;50.846;4.078;2022-12-29T08:56:05;10.50;99.90
20658;DHT22;10488;50.846;4.078;2022-12-29T08:58:31;10.50;99.90
20658;DHT22;10488;50.846;4.078;2022-12-29T09:00:57;10.50;99.90
20658;DHT22;10488;50.846;4.078;2022-12-29T09:03:24;10.40;99.90
20658;DHT22;10488;50.846;4.078;2022-12-29T09:05:50;10.40;99.90
20658;DHT22;10488;50.846;4.078;2022-12-29T09:08:17;10.30;99.90
20658;DHT22;10488;50.846;4.078;2022-12-29T09:10:43;10.20;99.90
20658;DHT22;10488;50.846;4.078;2022-12-29T09:13:10;10.20;99.90
20658;DHT22;10488;50.846;4.078;2022-12-29T09:15:36;10.20;99.90
20658;DHT22;10488;50.846;4.078;2022-12-29T09:18:01;10.30;99.90
20658;DHT22;10488;50.846;4.078;2022-12-29T09:20:27;10.10;99.90
20658;DHT22;10488;50.846;4.078;2022-12-29T09:22:53;10.00;99.90
20658;DHT22;10488;50.846;4.078;2022-12-29T09:25:19;10.00;99.90
20658;DHT22;10488;50.846;4.078;2022-12-29T09:27:45;10.00;99.90
20658;DHT22;10488;50.846;4.078;2022-12-29T09:30:11;10.00;99.90
20658;DHT22;10488;50.846;4.078;2022-12-29T09:32:38;10.00;99.90
20658;DHT22;10488;50.846;4.078;2022-12-29T09:35:04;10.00;99.90
20658;DHT22;10488;50.846;4.078;2022-12-29T09:37:29;10.00;99.90
20658;DHT22;10488;50.846;4.078;2022-12-29T09:39:55;10.10;99.90
20658;DHT22;10488;50.846;4.078;2022-12-29T09:42:26;10.10;99.90
20658;DHT22;10488;50.846;4.078;2022-12-29T09:45:08;10.20;99.90
20658;DHT22;10488;50.846;4.078;2022-12-29T09:47:36;10.30;99.90
20658;DHT22;10488;50.846;4.078;2022-12-29T09:52:40;10.40;99.90
20658;DHT22;10488;50.846;4.078;2022-12-29T09:55:16;10.40;99.90
20658;DHT22;10488;50.846;4.078;2022-12-29T09:58:05;10.40;99.90
20658;DHT22;10488;50.846;4.078;2022-12-29T10:00:48;10.40;99.90
20658;DHT22;10488;50.846;4.078;2022-12-29T10:03:24;10.50;99.90
20658;DHT22;10488;50.846;4.078;2022-12-29T10:05:51;10.50;99.90
20658;DHT22;10488;50.846;4.078;2022-12-29T10:11:18;10.70;99.90
20658;DHT22;10488;50.846;4.078;2022-12-29T10:17:03;10.80;99.90
20658;DHT22;10488;50.846;4.078;2022-12-29T10:19:53;10.80;99.90
20658;DHT22;10488;50.846;4.078;2022-12-29T10:22:32;10.80;99.90
20658;DHT22;10488;50.846;4.078;2022-12-29T10:25:00;10.80;99.90
20658;DHT22;10488;50.846;4.078;2022-12-29T10:27:30;10.80;99.90
20658;DHT22;10488;50.846;4.078;2022-12-29T10:29:58;10.80;99.90
20658;DHT22;10488;50.846;4.078;2022-12-29T10:32:50;10.80;99.90
20658;DHT22;10488;50.846;4.078;2022-12-29T10:35:23;10.90;99.90
20658;DHT22;10488;50.846;4.078;2022-12-29T10:37:52;10.80;99.90
20658;DHT22;10488;50.846;4.078;2022-12-29T10:43:28;11.00;99.90
20658;DHT22;10488;50.846;4.078;2022-12-29T10:46:04;11.00;99.90
20658;DHT22;10488;50.846;4.078;2022-12-29T10:48:34;10.90;99.90
20658;DHT22;10488;50.846;4.078;2022-12-29T10:51:02;11.00;99.90
20658;DHT22;10488;50.846;4.078;2022-12-29T10:53:43;11.00;99.90
20658;DHT22;10488;50.846;4.078;2022-12-29T10:58:56;11.10;99.90
20658;DHT22;10488;50.846;4.078;2022-12-29T11:01:24;11.10;99.90
20658;DHT22;10488;50.846;4.078;2022-12-29T11:06:55;11.20;99.90
20658;DHT22;10488;50.846;4.078;2022-12-29T11:09:27;11.20;99.90
20658;DHT22;10488;50.846;4.078;2022-12-29T11:11:53;11.40;99.90
20658;DHT22;10488;50.846;4.078;2022-12-29T11:14:30;11.50;99.90
20658;DHT22;10488;50.846;4.078;2022-12-29T11:17:03;11.60;99.90
20658;DHT22;10488;50.846;4.078;2022-12-29T11:19:31;11.80;99.90
20658;DHT22;10488;50.846;4.078;2022-12-29T11:22:24;11.70;99.90
20658;DHT22;10488;50.846;4.078;2022-12-29T11:24:51;11.50;99.90
20658;DHT22;10488;50.846;4.078;2022-12-29T11:27:25;11.50;99.90
20658;DHT22;10488;50.846;4.078;2022-12-29T11:29:53;11.50;99.90
20658;DHT22;10488;50.846;4.078;2022-12-29T11:32:21;11.30;99.90
20658;DHT22;10488;50.846;4.078;2022-12-29T11:34:48;11.00;99.90
20658;DHT22;10488;50.846;4.078;2022-12-29T11:37:28;11.00;99.90
20658;DHT22;10488;50.846;4.078;2022-12-29T11:40:18;10.90;99.90
20658;DHT22;10488;50.846;4.078;2022-12-29T11:42:51;10.80;99.90
20658;DHT22;10488;50.846;4.078;2022-12-29T11:45:26;10.80;99.90
20658;DHT22;10488;50.846;4.078;2022-12-29T11:47:59;10.90;99.90
20658;DHT22;10488;50.846;4.078;2022-12-29T11:50:28;10.80;99.90
20658;DHT22;10488;50.846;4.078;2022-12-29T11:53:01;10.90;99.90
20658;DHT22;10488;50.846;4.078;2022-12-29T11:55:28;10.90;99.90
20658;DHT22;10488;50.846;4.078;2022-12-29T11:57:57;10.80;99.90
20658;DHT22;10488;50.846;4.078;2022-12-29T12:00:24;10.90;99.90
20658;DHT22;10488;50.846;4.078;2022-12-29T12:03:02;10.90;99.90
20658;DHT22;10488;50.846;4.078;2022-12-29T12:05:35;10.80;99.90
20658;DHT22;10488;50.846;4.078;2022-12-29T12:09:04;10.80;99.90
20658;DHT22;10488;50.846;4.078;2022-12-29T12:11:22;10.70;99.90
20658;DHT22;10488;50.846;4.078;2022-12-29T12:17:04;10.70;99.90
20658;DHT22;10488;50.846;4.078;2022-12-29T12:19:48;10.70;99.90
20658;DHT22;10488;50.846;4.078;2022-12-29T12:22:38;10.70;99.90
20658;DHT22;10488;50.846;4.078;2022-12-29T12:27:48;11.00;99.90
20658;DHT22;10488;50.846;4.078;2022-12-29T12:30:21;11.00;99.90
20658;DHT22;10488;50.846;4.078;2022-12-29T12:33:13;11.10;99.90
20658;DHT22;10488;50.846;4.078;2022-12-29T12:44:09;10.90;99.90
20658;DHT22;10488;50.846;4.078;2022-12-29T12:47:00;10.80;99.90
20658;DHT22;10488;50.846;4.078;2022-12-29T12:58:22;10.80;99.90
20658;DHT22;10488;50.846;4.078;2022-12-29T13:09:11;10.90;99.90
20658;DHT22;10488;50.846;4.078;2022-12-29T13:14:53;11.00;99.90
20658;DHT22;10488;50.846;4.078;2022-12-29T13:17:26;11.10;99.90
20658;DHT22;10488;50.846;4.078;2022-12-29T13:23:14;11.20;99.90
20658;DHT22;10488;50.846;4.078;2022-12-29T13:28:57;11.40;99.90
20658;DHT22;10488;50.846;4.078;2022-12-29T13:31:30;11.20;99.90
20658;DHT22;10488;50.846;4.078;2022-12-29T13:34:33;11.00;99.90
20658;DHT22;10488;50.846;4.078;2022-12-29T13:37:11;11.20;99.90
20658;DHT22;10488;50.846;4.078;2022-12-29T13:39:44;11.10;99.90
20658;DHT22;10488;50.846;4.078;2022-12-29T13:42:11;11.20;99.90
20658;DHT22;10488;50.846;4.078;2022-12-29T13:44:47;11.10;99.90
20658;DHT22;10488;50.846;4.078;2022-12-29T13:47:33;11.10;99.90
20658;DHT22;10488;50.846;4.078;2022-12-29T13:50:01;11.10;99.90
20658;DHT22;10488;50.846;4.078;2022-12-29T13:52:43;11.00;99.90
20658;DHT22;10488;50.846;4.078;2022-12-29T13:55:26;10.90;99.90
20658;DHT22;10488;50.846;4.078;2022-12-29T14:03:52;10.90;99.90
20658;DHT22;10488;50.846;4.078;2022-12-29T14:06:29;10.90;99.90
20658;DHT22;10488;50.846;4.078;2022-12-29T14:08:58;10.90;99.90
20658;DHT22;10488;50.846;4.078;2022-12-29T14:11:36;10.90;99.90
20658;DHT22;10488;50.846;4.078;2022-12-29T14:14:25;10.60;99.90
20658;DHT22;10488;50.846;4.078;2022-12-29T14:16:53;10.40;99.90
20658;DHT22;10488;50.846;4.078;2022-12-29T14:19:39;10.00;99.90
20658;DHT22;10488;50.846;4.078;2022-12-29T14:22:06;9.60;99.90
20658;DHT22;10488;50.846;4.078;2022-12-29T14:26:58;9.60;99.90
20658;DHT22;10488;50.846;4.078;2022-12-29T14:31:50;9.30;99.90
20658;DHT22;10488;50.846;4.078;2022-12-29T14:39:39;9.20;99.90
20658;DHT22;10488;50.846;4.078;2022-12-29T14:47:36;9.10;99.90
20658;DHT22;10488;50.846;4.078;2022-12-29T14:52:32;8.80;99.90
20658;DHT22;10488;50.846;4.078;2022-12-29T14:57:44;8.80;99.90
20658;DHT22;10488;50.846;4.078;2022-12-29T15:00:33;8.70;99.90
20658;DHT22;10488;50.846;4.078;2022-12-29T15:03:16;8.60;99.90
20658;DHT22;10488;50.846;4.078;2022-12-29T15:05:54;8.50;99.90
20658;DHT22;10488;50.846;4.078;2022-12-29T15:08:26;8.50;99.90
20658;DHT22;10488;50.846;4.078;2022-12-29T15:13:35;8.60;99.90
20658;DHT22;10488;50.846;4.078;2022-12-29T15:16:01;8.40;99.90
20658;DHT22;10488;50.846;4.078;2022-12-29T15:18:32;8.30;99.90
20658;DHT22;10488;50.846;4.078;2022-12-29T15:21:04;8.40;99.90
20658;DHT22;10488;50.846;4.078;2022-12-29T15:23:32;8.40;99.90
20658;DHT22;10488;50.846;4.078;2022-12-29T15:26:01;8.50;99.90
20658;DHT22;10488;50.846;4.078;2022-12-29T15:28:39;8.50;99.90
20658;DHT22;10488;50.846;4.078;2022-12-29T15:31:27;8.60;99.90
20658;DHT22;10488;50.846;4.078;2022-12-29T15:33:54;8.70;99.90
20658;DHT22;10488;50.846;4.078;2022-12-29T15:36:28;8.80;99.90
20658;DHT22;10488;50.846;4.078;2022-12-29T15:38:55;8.80;99.90
20658;DHT22;10488;50.846;4.078;2022-12-29T15:41:42;8.90;99.90
20658;DHT22;10488;50.846;4.078;2022-12-29T15:44:29;8.80;99.90
20658;DHT22;10488;50.846;4.078;2022-12-29T15:47:05;8.60;99.90
20658;DHT22;10488;50.846;4.078;2022-12-29T15:49:32;8.40;99.90
20658;DHT22;10488;50.846;4.078;2022-12-29T15:51:58;8.50;99.90
20658;DHT22;10488;50.846;4.078;2022-12-29T15:54:24;8.50;99.90
20658;DHT22;10488;50.846;4.078;2022-12-29T15:56:51;8.50;99.90
20658;DHT22;10488;50.846;4.078;2022-12-29T15:59:45;8.30;99.90
20658;DHT22;10488;50.846;4.078;2022-12-29T16:02:11;8.10;99.90
20658;DHT22;10488;50.846;4.078;2022-12-29T16:04:37;8.00;99.90
20658;DHT22;10488;50.846;4.078;2022-12-29T16:07:05;8.00;99.90
20658;DHT22;10488;50.846;4.078;2022-12-29T16:09:41;8.00;99.90
20658;DHT22;10488;50.846;4.078;2022-12-29T16:12:18;8.00;99.90
20658;DHT22;10488;50.846;4.078;2022-12-29T16:14:59;8.10;99.90
20658;DHT22;10488;50.846;4.078;2022-12-29T16:17:28;8.10;99.90
20658;DHT22;10488;50.846;4.078;2022-12-29T16:20:19;8.10;99.90
20658;DHT22;10488;50.846;4.078;2022-12-29T16:22:56;8.10;99.90
20658;DHT22;10488;50.846;4.078;2022-12-29T16:25:31;8.10;99.90
20658;DHT22;10488;50.846;4.078;2022-12-29T16:28:00;8.10;99.90
20658;DHT22;10488;50.846;4.078;2022-12-29T16:30:32;8.00;99.90
20658;DHT22;10488;50.846;4.078;2022-12-29T16:33:00;7.80;99.90
20658;DHT22;10488;50.846;4.078;2022-12-29T16:35:44;7.80;99.90
20658;DHT22;10488;50.846;4.078;2022-12-29T16:38:20;7.80;99.90
20658;DHT22;10488;50.846;4.078;2022-12-29T16:41:04;7.80;99.90
20658;DHT22;10488;50.846;4.078;2022-12-29T16:43:31;7.90;99.90
20658;DHT22;10488;50.846;4.078;2022-12-29T16:48:33;7.80;99.90
20658;DHT22;10488;50.846;4.078;2022-12-29T16:51:14;7.90;99.90
20658;DHT22;10488;50.846;4.078;2022-12-29T16:53:47;7.80;99.90
20658;DHT22;10488;50.846;4.078;2022-12-29T16:56:20;7.80;99.90
20658;DHT22;10488;50.846;4.078;2022-12-29T16:59:07;7.90;99.90
20658;DHT22;10488;50.846;4.078;2022-12-29T17:01:37;7.90;99.90
20658;DHT22;10488;50.846;4.078;2022-12-29T17:04:11;7.90;99.90
20658;DHT22;10488;50.846;4.078;2022-12-29T17:06:46;7.90;99.90
20658;DHT22;10488;50.846;4.078;2022-12-29T17:09:18;7.90;99.90
20658;DHT22;10488;50.846;4.078;2022-12-29T17:11:50;7.90;99.90
20658;DHT22;10488;50.846;4.078;2022-12-29T17:14:42;7.90;99.90
20658;DHT22;10488;50.846;4.078;2022-12-29T17:17:20;7.90;99.90
20658;DHT22;10488;50.846;4.078;2022-12-29T17:19:55;7.80;99.90
20658;DHT22;10488;50.846;4.078;2022-12-29T17:22:26;7.70;99.90
20658;DHT22;10488;50.846;4.078;2022-12-29T17:24:54;7.70;99.90
20658;DHT22;10488;50.846;4.078;2022-12-29T17:27:24;7.70;99.90
20658;DHT22;10488;50.846;4.078;2022-12-29T17:29:51;7.70;99.90
20658;DHT22;10488;50.846;4.078;2022-12-29T17:32:18;7.70;99.90
20658;DHT22;10488;50.846;4.078;2022-12-29T17:34:43;7.70;99.90
20658;DHT22;10488;50.846;4.078;2022-12-29T17:37:36;7.70;99.90
20658;DHT22;10488;50.846;4.078;2022-12-29T17:40:04;7.80;99.90
20658;DHT22;10488;50.846;4.078;2022-12-29T17:42:31;7.80;99.90
20658;DHT22;10488;50.846;4.078;2022-12-29T17:44:58;7.70;99.90
20658;DHT22;10488;50.846;4.078;2022-12-29T17:47:25;7.80;99.90
20658;DHT22;10488;50.846;4.078;2022-12-29T17:49:51;7.80;99.90
20658;DHT22;10488;50.846;4.078;2022-12-29T17:52:16;7.80;99.90
20658;DHT22;10488;50.846;4.078;2022-12-29T17:54:51;7.90;99.90
20658;DHT22;10488;50.846;4.078;2022-12-29T17:57:18;7.90;99.90
20658;DHT22;10488;50.846;4.078;2022-12-29T17:59:44;7.80;99.90
20658;DHT22;10488;50.846;4.078;2022-12-29T18:02:30;7.80;99.90
20658;DHT22;10488;50.846;4.078;2022-12-29T18:04:57;7.80;99.90
20658;DHT22;10488;50.846;4.078;2022-12-29T18:07:27;7.80;99.90
20658;DHT22;10488;50.846;4.078;2022-12-29T18:09:54;7.70;99.90
20658;DHT22;10488;50.846;4.078;2022-12-29T18:12:37;7.60;99.90